Time;durP1;ratioP1;P1;durP2;ratioP2;P2;SDS_P1;SDS_P2;PMS_P1;PMS_P2;Temp;Humidity;BMP_temperature;BMP_pressure;BME280_temperature;BME280_humidity;BME280_pressure;Samples;Min_cycle;Max_cycle;Signal;HPM_P1;HPM_P2
2022/09/11 00:01:40;;;;;;;12.73;9.30;;;15.40;99.90;;;;;;4972474;28;20121;-36
2022/09/11 00:04:06;;;;;;;13.18;9.43;;;15.30;99.90;;;;;;4972538;28;20130;-37
2022/09/11 00:06:32;;;;;;;17.98;12.40;;;15.30;99.90;;;;;;4969806;28;20458;-36
2022/09/11 00:09:00;;;;;;;16.58;11.88;;;15.20;99.90;;;;;;4968751;28;20123;-36
2022/09/11 00:11:34;;;;;;;13.30;8.90;;;15.20;99.90;;;;;;4967578;28;20534;-36
2022/09/11 00:14:00;;;;;;;20.95;12.30;;;15.20;99.90;;;;;;4966785;28;20137;-36
2022/09/11 00:16:35;;;;;;;17.92;11.25;;;15.10;99.90;;;;;;4967382;28;20034;-39
2022/09/11 00:19:07;;;;;;;13.57;9.50;;;15.10;99.90;;;;;;4968866;28;20050;-36
2022/09/11 00:21:33;;;;;;;15.02;10.57;;;15.10;99.90;;;;;;4968867;28;20708;-36
2022/09/11 00:23:59;;;;;;;13.18;9.93;;;15.10;99.90;;;;;;4968423;28;20039;-36
2022/09/11 00:26:25;;;;;;;13.73;10.40;;;15.00;99.90;;;;;;4969803;28;20057;-37
2022/09/11 00:28:51;;;;;;;18.15;12.55;;;15.00;99.90;;;;;;4971308;28;20039;-36
2022/09/11 00:31:26;;;;;;;14.70;10.20;;;15.00;99.90;;;;;;4971835;28;20050;-36
2022/09/11 00:33:52;;;;;;;14.80;10.88;;;14.90;99.90;;;;;;4970192;28;20042;-36
2022/09/11 00:36:21;;;;;;;18.70;11.75;;;14.90;99.90;;;;;;4970344;28;20054;-38
2022/09/11 00:38:48;;;;;;;15.70;11.05;;;14.90;99.90;;;;;;4970049;28;20105;-36
2022/09/11 00:41:30;;;;;;;16.27;11.10;;;14.90;99.90;;;;;;4969608;28;20038;-35
2022/09/11 00:44:04;;;;;;;18.73;11.20;;;14.90;99.90;;;;;;4974472;28;20042;-37
2022/09/11 00:46:53;;;;;;;15.80;11.15;;;14.90;99.90;;;;;;4966929;28;20038;-36
2022/09/11 00:49:46;;;;;;;15.10;10.68;;;14.90;99.90;;;;;;4968886;28;20053;-36
2022/09/11 00:52:23;;;;;;;15.77;11.15;;;14.90;99.90;;;;;;4954326;28;20039;-37
2022/09/11 00:55:02;;;;;;;16.98;11.98;;;14.90;99.90;;;;;;4973111;28;20404;-36
2022/09/11 00:57:32;;;;;;;13.55;10.23;;;14.90;99.90;;;;;;4965066;28;20070;-35
2022/09/11 00:59:59;;;;;;;15.20;11.10;;;14.90;99.90;;;;;;4969866;28;20039;-37
2022/09/11 01:02:29;;;;;;;16.48;11.85;;;14.90;99.90;;;;;;4967167;28;20057;-37
2022/09/11 01:04:56;;;;;;;19.08;11.75;;;14.90;99.90;;;;;;4968122;28;20042;-37
2022/09/11 01:07:24;;;;;;;14.30;9.85;;;14.90;99.90;;;;;;4962524;28;20090;-36
2022/09/11 01:09:50;;;;;;;14.20;10.82;;;14.90;99.90;;;;;;4969039;28;20038;-36
2022/09/11 01:12:23;;;;;;;14.50;9.80;;;14.90;99.90;;;;;;4968523;28;20058;-36
2022/09/11 01:15:05;;;;;;;14.30;10.50;;;14.80;99.90;;;;;;4964809;28;20064;-37
2022/09/11 01:17:51;;;;;;;16.02;11.68;;;14.80;99.90;;;;;;4967649;28;20062;-37
2022/09/11 01:20:55;;;;;;;19.35;12.48;;;14.80;99.90;;;;;;4967542;28;20051;-37
2022/09/11 01:23:42;;;;;;;16.92;10.95;;;14.80;99.90;;;;;;4966282;28;20669;-36
2022/09/11 01:26:42;;;;;;;17.25;12.15;;;14.80;99.90;;;;;;4969648;28;20443;-37
2022/09/11 01:29:18;;;;;;;17.92;13.13;;;14.80;99.90;;;;;;4967197;28;20042;-36
2022/09/11 01:32:03;;;;;;;17.05;10.75;;;14.80;99.90;;;;;;4968840;28;20051;-36
2022/09/11 01:34:56;;;;;;;14.38;10.43;;;14.80;99.90;;;;;;4970186;28;20047;-35
2022/09/11 01:37:37;;;;;;;16.85;11.57;;;14.80;99.90;;;;;;4956575;28;20138;-36
2022/09/11 01:40:16;;;;;;;17.67;12.20;;;14.80;99.90;;;;;;4965663;28;20050;-36
2022/09/11 01:42:43;;;;;;;19.27;12.55;;;14.70;99.90;;;;;;4968499;28;20770;-36
2022/09/11 01:45:10;;;;;;;18.90;13.43;;;14.70;99.90;;;;;;4969611;28;20519;-37
2022/09/11 01:47:37;;;;;;;16.30;11.90;;;14.70;99.90;;;;;;4969184;28;20039;-37
2022/09/11 01:50:10;;;;;;;17.77;12.23;;;14.70;99.90;;;;;;4969970;28;20154;-36
2022/09/11 01:53:00;;;;;;;18.17;12.02;;;14.70;99.90;;;;;;4965794;28;20480;-36
2022/09/11 01:55:33;;;;;;;16.50;11.52;;;14.70;99.90;;;;;;4968709;28;20057;-37
2022/09/11 01:58:12;;;;;;;19.40;12.68;;;14.70;99.90;;;;;;4962197;28;20035;-37
2022/09/11 02:00:41;;;;;;;12.82;9.52;;;14.70;99.90;;;;;;4968325;28;20043;-36
2022/09/11 02:03:29;;;;;;;16.23;10.43;;;14.70;99.90;;;;;;4965018;28;20441;-37
2022/09/11 02:06:06;;;;;;;14.75;10.48;;;14.60;99.90;;;;;;4966054;28;20489;-36
2022/09/11 02:08:52;;;;;;;17.02;11.77;;;14.60;99.90;;;;;;4965606;28;20038;-37
2022/09/11 02:11:19;;;;;;;17.80;11.57;;;14.60;99.90;;;;;;4967345;28;20061;-36
2022/09/11 02:13:55;;;;;;;16.35;11.48;;;14.60;99.90;;;;;;4967073;28;20121;-37
2022/09/11 02:16:38;;;;;;;16.27;10.90;;;14.60;99.90;;;;;;4965251;28;20046;-37
2022/09/11 02:19:07;;;;;;;17.15;12.35;;;14.60;99.90;;;;;;4957931;28;20051;-37
2022/09/11 02:21:33;;;;;;;18.35;13.48;;;14.60;99.90;;;;;;4960420;28;20514;-36
2022/09/11 02:24:00;;;;;;;14.85;10.57;;;14.50;99.90;;;;;;4960824;28;20071;-36
2022/09/11 02:26:29;;;;;;;14.98;10.93;;;14.60;99.90;;;;;;4962990;28;20169;-36
2022/09/11 02:28:55;;;;;;;17.63;11.05;;;14.50;99.90;;;;;;4960942;28;20396;-36
2022/09/11 02:31:21;;;;;;;15.75;10.38;;;14.50;99.90;;;;;;4965602;28;20035;-37
2022/09/11 02:33:49;;;;;;;18.30;12.82;;;14.50;99.90;;;;;;4965370;28;20042;-35
2022/09/11 02:36:41;;;;;;;16.30;9.77;;;14.50;99.90;;;;;;4962732;28;20114;-37
2022/09/11 02:39:22;;;;;;;27.90;11.45;;;14.50;99.90;;;;;;4964455;28;20051;-36
2022/09/11 02:42:24;;;;;;;133.18;13.40;;;14.40;99.90;;;;;;4966819;28;20093;-36
2022/09/11 02:45:00;;;;;;;65.60;10.77;;;14.30;99.90;;;;;;4963397;28;20035;-37
2022/09/11 02:47:35;;;;;;;79.22;10.05;;;14.30;99.90;;;;;;4967530;28;20063;-36
2022/09/11 02:50:24;;;;;;;170.93;12.20;;;14.20;99.90;;;;;;4966542;28;20093;-36
2022/09/11 02:52:56;;;;;;;244.52;15.75;;;14.20;99.90;;;;;;4968064;28;20123;-37
2022/09/11 02:55:49;;;;;;;151.23;11.50;;;14.20;99.90;;;;;;4966173;28;20053;-36
2022/09/11 02:58:26;;;;;;;;;;;14.10;99.90;;;;;;4967265;28;20066;-36
2022/09/11 03:00:56;;;;;;;100.10;13.32;;;14.10;99.90;;;;;;4966348;28;20294;-37
2022/09/11 03:03:22;;;;;;;74.50;8.68;;;14.10;99.90;;;;;;4966009;28;20113;-36
2022/09/11 03:05:48;;;;;;;99.07;9.30;;;14.00;99.90;;;;;;4965921;28;20069;-36
2022/09/11 03:08:16;;;;;;;64.68;7.75;;;14.00;99.90;;;;;;4963263;28;20042;-37
2022/09/11 03:10:45;;;;;;;58.88;7.07;;;14.00;99.90;;;;;;4966620;28;20058;-36
2022/09/11 03:13:12;;;;;;;66.25;7.35;;;14.00;99.90;;;;;;4965113;28;20464;-36
2022/09/11 03:15:37;;;;;;;71.78;7.68;;;14.00;99.90;;;;;;4965714;28;20043;-37
2022/09/11 03:18:04;;;;;;;73.30;7.63;;;13.90;99.90;;;;;;4968337;28;20112;-37
2022/09/11 03:20:29;;;;;;;138.50;12.18;;;14.00;99.90;;;;;;4966189;28;20041;-36
2022/09/11 03:22:55;;;;;;;103.35;7.72;;;14.00;99.90;;;;;;4967247;28;20416;-37
2022/09/11 03:25:27;;;;;;;92.65;14.60;;;13.90;99.90;;;;;;4966855;28;20042;-36
2022/09/11 03:27:53;;;;;;;96.43;10.95;;;14.00;99.90;;;;;;4967580;28;20038;-37
2022/09/11 03:30:20;;;;;;;29.02;5.90;;;14.00;99.90;;;;;;4965917;28;20034;-39
2022/09/11 03:32:45;;;;;;;55.92;7.03;;;14.00;99.90;;;;;;4969911;28;20035;-37
2022/09/11 03:35:11;;;;;;;26.17;5.63;;;13.90;99.90;;;;;;4968174;28;20547;-36
2022/09/11 03:37:37;;;;;;;35.83;4.90;;;13.80;99.90;;;;;;4964878;28;20121;-36
2022/09/11 03:40:03;;;;;;;49.45;5.65;;;13.80;99.90;;;;;;4965793;28;20574;-36
2022/09/11 03:42:29;;;;;;;33.90;5.47;;;13.70;99.90;;;;;;4971996;28;20045;-37
2022/09/11 03:44:54;;;;;;;42.47;4.57;;;13.60;99.90;;;;;;4974053;28;20408;-36
2022/09/11 03:47:21;;;;;;;39.15;4.40;;;13.50;99.90;;;;;;4970135;28;20045;-37
2022/09/11 03:49:47;;;;;;;28.27;3.70;;;13.40;99.90;;;;;;4969056;28;20062;-36
2022/09/11 03:52:13;;;;;;;70.85;7.43;;;13.40;99.90;;;;;;4969726;28;20540;-36
2022/09/11 03:54:38;;;;;;;42.42;6.47;;;13.30;99.90;;;;;;4968244;28;20045;-36
2022/09/11 03:57:05;;;;;;;46.38;5.78;;;13.30;99.90;;;;;;4969716;28;20039;-36
2022/09/11 03:59:31;;;;;;;51.72;5.00;;;13.30;99.90;;;;;;4967357;28;20085;-36
2022/09/11 04:01:57;;;;;;;30.88;4.57;;;13.20;99.90;;;;;;4972247;28;20031;-35
2022/09/11 04:04:23;;;;;;;28.17;5.90;;;13.20;99.90;;;;;;4966545;28;20055;-35
2022/09/11 04:06:48;;;;;;;17.58;5.72;;;13.20;99.90;;;;;;4969814;28;20484;-36
2022/09/11 04:09:14;;;;;;;6.38;3.53;;;13.20;99.90;;;;;;4968362;28;20042;-36
2022/09/11 04:11:40;;;;;;;25.27;5.50;;;13.30;99.90;;;;;;4966973;28;20047;-37
2022/09/11 04:14:07;;;;;;;38.47;6.72;;;13.30;99.90;;;;;;4970252;28;20525;-36
2022/09/11 04:16:33;;;;;;;14.02;5.20;;;13.30;99.90;;;;;;4964961;28;20053;-36
2022/09/11 04:19:00;;;;;;;18.83;6.05;;;13.40;99.90;;;;;;4971952;28;20039;-37
2022/09/11 04:21:26;;;;;;;15.77;4.82;;;13.40;99.90;;;;;;4974264;28;20416;-36
2022/09/11 04:23:55;;;;;;;22.33;6.05;;;13.40;99.90;;;;;;4967845;28;20039;-36
2022/09/11 04:26:23;;;;;;;45.38;6.43;;;13.40;99.90;;;;;;4970752;28;20045;-37
2022/09/11 04:28:49;;;;;;;60.83;6.30;;;13.40;99.90;;;;;;4951750;28;20041;-36
2022/09/11 04:31:17;;;;;;;41.15;5.45;;;13.40;99.90;;;;;;4965140;28;20039;-36
2022/09/11 04:33:43;;;;;;;53.13;6.45;;;13.40;99.90;;;;;;4968133;28;20097;-36
2022/09/11 04:36:12;;;;;;;46.90;6.53;;;13.40;99.90;;;;;;4971685;28;20508;-36
2022/09/11 04:38:41;;;;;;;57.85;6.93;;;13.40;99.90;;;;;;4965369;28;20042;-36
2022/09/11 04:41:07;;;;;;;38.13;5.75;;;13.40;99.90;;;;;;4966239;28;20093;-36
2022/09/11 04:43:35;;;;;;;48.75;5.88;;;13.40;99.90;;;;;;4968509;28;20086;-36
2022/09/11 04:46:06;;;;;;;9.52;4.15;;;13.40;99.90;;;;;;4972408;28;20454;-36
2022/09/11 04:48:32;;;;;;;17.83;4.97;;;13.30;99.90;;;;;;4967704;28;20077;-42
2022/09/11 04:51:06;;;;;;;4.97;4.00;;;13.30;99.90;;;;;;4966478;28;20043;-36
2022/09/11 04:53:33;;;;;;;5.60;3.92;;;13.40;99.90;;;;;;4969523;28;20034;-37
2022/09/11 04:56:13;;;;;;;9.07;5.15;;;13.40;99.90;;;;;;4968615;28;20050;-37
2022/09/11 04:58:40;;;;;;;5.90;4.25;;;13.40;99.90;;;;;;4969053;28;20063;-36
2022/09/11 05:01:13;;;;;;;10.35;4.70;;;13.40;99.90;;;;;;4970247;28;20042;-36
2022/09/11 05:03:39;;;;;;;37.72;5.95;;;13.40;99.90;;;;;;4964638;28;20043;-36
2022/09/11 05:06:06;;;;;;;29.02;5.47;;;13.40;99.90;;;;;;4967957;28;20076;-36
2022/09/11 05:08:33;;;;;;;23.88;5.80;;;13.40;99.90;;;;;;4968464;28;20041;-36
2022/09/11 05:10:59;;;;;;;9.00;4.90;;;13.40;99.90;;;;;;4964779;28;20054;-36
2022/09/11 05:13:26;;;;;;;9.75;5.00;;;13.40;99.90;;;;;;4968711;28;20074;-36
2022/09/11 05:15:53;;;;;;;10.18;4.70;;;13.30;99.90;;;;;;4954307;28;20125;-36
2022/09/11 05:18:18;;;;;;;7.32;4.88;;;13.40;99.90;;;;;;4970601;28;20078;-37
2022/09/11 05:20:44;;;;;;;9.77;5.35;;;13.40;99.90;;;;;;4966206;28;20117;-36
2022/09/11 05:23:12;;;;;;;8.52;4.78;;;13.40;99.90;;;;;;4968551;28;20047;-36
2022/09/11 05:25:38;;;;;;;16.52;6.57;;;13.40;99.90;;;;;;4968179;28;20039;-36
2022/09/11 05:28:04;;;;;;;13.18;6.30;;;13.40;99.90;;;;;;4967622;28;20045;-37
2022/09/11 05:30:30;;;;;;;24.92;6.53;;;13.40;99.90;;;;;;4966769;28;20038;-36
2022/09/11 05:32:56;;;;;;;13.95;5.28;;;13.40;99.90;;;;;;4967544;28;20031;-37
2022/09/11 05:35:25;;;;;;;19.48;6.90;;;13.40;99.90;;;;;;4968490;28;20035;-38
2022/09/11 05:37:51;;;;;;;21.63;7.47;;;13.40;99.90;;;;;;4969905;28;20122;-37
2022/09/11 05:40:16;;;;;;;20.60;5.68;;;13.40;99.90;;;;;;4964727;28;20046;-36
2022/09/11 05:42:42;;;;;;;27.77;5.88;;;13.40;99.90;;;;;;4962771;28;20041;-36
2022/09/11 05:45:08;;;;;;;21.30;4.90;;;13.40;99.90;;;;;;4968704;28;20532;-36
2022/09/11 05:47:34;;;;;;;8.60;4.40;;;13.40;99.90;;;;;;4967424;28;20389;-36
2022/09/11 05:50:00;;;;;;;16.65;5.50;;;13.40;99.90;;;;;;4967516;28;20042;-37
2022/09/11 05:52:27;;;;;;;21.27;5.50;;;13.50;99.90;;;;;;4970267;28;20114;-36
2022/09/11 05:54:53;;;;;;;8.15;4.22;;;13.50;99.90;;;;;;4966675;28;20045;-37
2022/09/11 05:57:18;;;;;;;6.78;4.65;;;13.50;99.90;;;;;;4966879;28;20042;-37
2022/09/11 05:59:44;;;;;;;11.75;4.13;;;13.60;99.90;;;;;;4966745;28;20030;-36
2022/09/11 06:02:10;;;;;;;16.85;4.47;;;13.60;99.90;;;;;;4968056;28;20473;-36
2022/09/11 06:04:36;;;;;;;15.82;4.13;;;13.60;99.90;;;;;;4966827;28;20051;-37
2022/09/11 06:07:02;;;;;;;11.65;3.70;;;13.60;99.90;;;;;;4968173;28;20039;-36
2022/09/11 06:09:28;;;;;;;11.90;4.45;;;13.60;99.90;;;;;;4969756;28;20141;-37
2022/09/11 06:11:53;;;;;;;7.93;3.55;;;13.60;99.90;;;;;;4967353;28;20090;-36
2022/09/11 06:14:20;;;;;;;8.18;3.42;;;13.60;99.90;;;;;;4964173;28;20043;-36
2022/09/11 06:16:47;;;;;;;7.65;4.35;;;13.60;99.90;;;;;;4966640;28;20039;-37
2022/09/11 06:19:12;;;;;;;5.63;4.20;;;13.70;99.90;;;;;;4968063;28;20061;-36
2022/09/11 06:21:39;;;;;;;6.97;4.45;;;13.70;99.90;;;;;;4968146;28;20488;-37
2022/09/11 06:24:05;;;;;;;5.88;4.20;;;13.80;99.90;;;;;;4964506;28;20057;-36
2022/09/11 06:26:31;;;;;;;9.20;3.53;;;13.80;99.90;;;;;;4970758;28;20045;-36
2022/09/11 06:28:57;;;;;;;10.02;3.38;;;13.90;99.90;;;;;;4966212;28;20110;-36
2022/09/11 06:31:24;;;;;;;8.93;3.55;;;14.00;99.90;;;;;;4968204;28;20042;-37
2022/09/11 06:33:51;;;;;;;6.40;3.80;;;14.00;99.90;;;;;;4966166;28;20126;-37
2022/09/11 06:36:23;;;;;;;7.35;4.40;;;14.00;99.90;;;;;;4970401;28;20054;-36
2022/09/11 06:38:56;;;;;;;5.30;4.25;;;14.10;99.90;;;;;;4968880;28;20049;-37
2022/09/11 06:41:23;;;;;;;5.68;4.35;;;14.20;99.90;;;;;;4968031;28;20042;-36
2022/09/11 06:43:49;;;;;;;6.50;4.80;;;14.20;99.90;;;;;;4964356;28;20500;-36
2022/09/11 06:46:18;;;;;;;11.75;8.85;;;14.20;99.90;;;;;;4967258;28;20035;-36
2022/09/11 06:48:46;;;;;;;5.85;4.68;;;14.30;99.90;;;;;;4964727;28;20041;-36
2022/09/11 06:51:14;;;;;;;5.30;3.55;;;14.40;99.90;;;;;;4966232;28;20038;-36
2022/09/11 06:53:41;;;;;;;6.70;4.97;;;14.40;99.90;;;;;;4964540;28;20055;-36
2022/09/11 06:56:11;;;;;;;5.53;4.55;;;14.40;99.90;;;;;;4968506;28;20672;-35
2022/09/11 06:58:38;;;;;;;8.15;5.97;;;14.40;99.90;;;;;;4961383;28;20500;-37
2022/09/11 07:01:10;;;;;;;11.80;9.45;;;14.50;99.90;;;;;;4966303;28;20146;-36
2022/09/11 07:03:36;;;;;;;5.95;4.75;;;14.60;99.90;;;;;;4959962;28;20042;-36
2022/09/11 07:06:04;;;;;;;7.20;4.70;;;14.70;99.90;;;;;;4966155;28;20546;-36
2022/09/11 07:08:30;;;;;;;6.97;4.68;;;14.70;99.90;;;;;;4968986;28;20035;-36
2022/09/11 07:11:04;;;;;;;6.32;5.35;;;14.90;99.90;;;;;;4969388;28;20062;-36
2022/09/11 07:13:31;;;;;;;6.35;4.45;;;14.90;99.90;;;;;;4964988;28;20534;-36
2022/09/11 07:16:06;;;;;;;7.05;5.25;;;15.00;99.90;;;;;;4965715;28;20101;-37
2022/09/11 07:18:36;;;;;;;5.60;4.20;;;15.10;99.90;;;;;;4969800;28;20092;-36
2022/09/11 07:21:06;;;;;;;7.30;5.45;;;15.20;99.90;;;;;;4967115;28;20071;-36
2022/09/11 07:23:33;;;;;;;9.55;6.78;;;15.30;99.90;;;;;;4964625;28;20047;-36
2022/09/11 07:26:07;;;;;;;10.23;7.32;;;15.40;99.90;;;;;;4963009;28;20117;-36
2022/09/11 07:28:34;;;;;;;10.77;7.18;;;15.50;99.90;;;;;;4968016;28;20046;-36
2022/09/11 07:31:12;;;;;;;8.32;6.57;;;15.60;99.90;;;;;;4967196;28;20500;-35
2022/09/11 07:33:39;;;;;;;6.65;5.20;;;15.70;99.90;;;;;;4949907;28;20578;-36
2022/09/11 07:36:10;;;;;;;6.72;5.15;;;15.80;99.90;;;;;;4967946;28;20033;-36
2022/09/11 07:38:41;;;;;;;7.32;5.72;;;15.90;99.90;;;;;;4966530;28;20035;-36
2022/09/11 07:41:08;;;;;;;8.27;6.07;;;16.00;99.90;;;;;;4966287;28;20433;-36
2022/09/11 07:43:40;;;;;;;7.93;5.22;;;16.10;99.90;;;;;;4964303;28;20081;-35
2022/09/11 07:46:08;;;;;;;7.05;5.53;;;16.20;99.90;;;;;;4964195;28;20124;-36
2022/09/11 07:48:35;;;;;;;8.32;6.63;;;16.30;99.90;;;;;;4963901;28;21965;-36
2022/09/11 07:51:06;;;;;;;10.05;6.65;;;16.40;99.90;;;;;;4966401;28;20719;-36
2022/09/11 07:53:40;;;;;;;6.72;5.57;;;16.50;99.90;;;;;;4971176;28;20523;-36
2022/09/11 07:56:08;;;;;;;7.43;5.80;;;16.60;99.90;;;;;;4966972;28;20090;-37
2022/09/11 07:58:37;;;;;;;10.52;6.60;;;16.70;99.90;;;;;;4967189;28;20074;-37
2022/09/11 08:01:07;;;;;;;9.27;6.40;;;16.90;99.90;;;;;;4968389;28;20126;-37
2022/09/11 08:03:35;;;;;;;8.18;4.95;;;17.00;99.90;;;;;;4967479;28;20400;-36
2022/09/11 08:06:03;;;;;;;8.38;6.43;;;17.10;99.90;;;;;;4969845;28;20381;-37
2022/09/11 08:08:29;;;;;;;7.05;4.82;;;17.10;99.90;;;;;;4969135;28;20042;-36
2022/09/11 08:10:56;;;;;;;7.03;5.38;;;17.20;99.90;;;;;;4969016;28;20061;-37
2022/09/11 08:13:22;;;;;;;7.57;5.40;;;17.40;99.90;;;;;;4966800;28;20411;-36
2022/09/11 08:15:49;;;;;;;7.75;4.57;;;17.50;99.90;;;;;;4969143;28;20045;-36
2022/09/11 08:18:15;;;;;;;7.75;4.00;;;17.50;99.90;;;;;;4966532;28;20062;-36
2022/09/11 08:20:41;;;;;;;6.82;4.40;;;17.60;99.90;;;;;;4954671;28;20049;-36
2022/09/11 08:23:08;;;;;;;6.78;3.45;;;17.70;99.90;;;;;;4967559;28;20043;-36
2022/09/11 08:25:36;;;;;;;6.05;3.75;;;17.80;99.90;;;;;;4968011;28;20691;-36
2022/09/11 08:28:02;;;;;;;7.68;3.70;;;17.90;99.90;;;;;;4964975;28;20042;-36
2022/09/11 08:30:28;;;;;;;6.80;3.80;;;17.90;99.90;;;;;;4965856;28;20503;-36
2022/09/11 08:32:54;;;;;;;4.72;2.80;;;18.00;99.90;;;;;;4967304;28;20034;-36
2022/09/11 08:35:20;;;;;;;5.82;3.88;;;18.20;99.90;;;;;;4961724;28;20057;-37
2022/09/11 08:37:45;;;;;;;7.18;3.10;;;18.20;99.90;;;;;;4967361;28;20038;-41
2022/09/11 08:40:12;;;;;;;4.32;2.40;;;18.30;99.90;;;;;;4971612;28;20041;-36
2022/09/11 08:42:43;;;;;;;4.95;2.60;;;18.50;99.90;;;;;;4969638;28;20042;-37
2022/09/11 08:45:15;;;;;;;4.45;1.88;;;18.60;99.90;;;;;;4967368;28;20042;-37
2022/09/11 08:47:48;;;;;;;3.53;2.30;;;18.80;99.90;;;;;;4964505;28;20173;-37
2022/09/11 08:50:25;;;;;;;5.25;2.42;;;19.00;99.90;;;;;;4968472;28;20042;-36
2022/09/11 08:52:53;;;;;;;4.15;2.47;;;19.20;99.90;;;;;;4971610;28;20053;-36
2022/09/11 08:55:39;;;;;;;2.75;1.50;;;19.40;99.90;;;;;;4965157;28;20069;-36
2022/09/11 08:58:31;;;;;;;4.47;2.10;;;19.50;99.90;;;;;;4971009;28;20049;-37
2022/09/11 09:01:20;;;;;;;6.82;1.83;;;19.70;99.90;;;;;;4966423;28;20035;-37
2022/09/11 09:03:55;;;;;;;5.00;2.10;;;19.70;99.90;;;;;;4966917;28;20472;-36
2022/09/11 09:06:41;;;;;;;5.10;2.13;;;19.70;99.90;;;;;;4968791;28;20507;-36
2022/09/11 09:09:18;;;;;;;6.28;2.38;;;19.70;99.90;;;;;;4951271;28;20173;-37
2022/09/11 09:12:05;;;;;;;3.58;1.98;;;19.70;99.90;;;;;;4965118;28;20575;-37
2022/09/11 09:15:06;;;;;;;3.90;2.13;;;19.60;99.90;;;;;;4967901;28;20082;-36
2022/09/11 09:17:39;;;;;;;4.03;1.60;;;19.70;99.90;;;;;;4959951;28;20420;-37
2022/09/11 09:20:12;;;;;;;3.78;1.70;;;19.90;99.90;;;;;;4968731;28;20082;-36
2022/09/11 09:22:59;;;;;;;4.22;1.63;;;20.10;99.90;;;;;;4964572;28;20061;-37
2022/09/11 09:25:25;;;;;;;3.03;1.73;;;20.30;99.90;;;;;;4953113;28;20113;-36
2022/09/11 09:28:01;;;;;;;3.03;1.67;;;20.40;99.90;;;;;;4968712;28;20043;-37
2022/09/11 09:30:29;;;;;;;5.93;1.63;;;20.60;99.90;;;;;;4964949;28;20055;-37
2022/09/11 09:33:31;;;;;;;3.03;1.35;;;20.70;99.90;;;;;;4962512;28;20806;-38
2022/09/11 09:36:16;;;;;;;2.55;1.50;;;20.90;99.90;;;;;;4962330;28;20497;-37
2022/09/11 09:38:43;;;;;;;6.43;2.05;;;21.00;99.90;;;;;;4962955;28;20042;-36
2022/09/11 09:41:39;;;;;;;3.65;1.50;;;21.10;99.90;;;;;;4967674;28;20122;-37
2022/09/11 09:44:24;;;;;;;3.03;1.52;;;21.20;99.90;;;;;;4966642;28;20053;-37
2022/09/11 09:46:52;;;;;;;4.50;1.40;;;21.10;99.90;;;;;;4948772;28;20577;-37
2022/09/11 09:49:31;;;;;;;3.55;1.45;;;20.90;99.90;;;;;;4965946;28;20042;-36
2022/09/11 09:52:02;;;;;;;2.88;1.20;;;20.80;99.90;;;;;;4967045;28;20043;-37
2022/09/11 09:54:32;;;;;;;2.17;1.42;;;20.70;99.90;;;;;;4966834;28;20043;-37
2022/09/11 09:57:04;;;;;;;2.88;1.20;;;20.60;99.90;;;;;;4967514;28;20047;-36
2022/09/11 09:59:49;;;;;;;3.38;1.30;;;20.40;99.90;;;;;;4969470;28;20400;-36
2022/09/11 10:02:37;;;;;;;3.70;1.45;;;20.30;99.90;;;;;;4965148;28;20053;-37
2022/09/11 10:05:38;;;;;;;3.22;1.73;;;20.20;99.90;;;;;;4967684;28;20101;-36
2022/09/11 10:08:09;;;;;;;3.45;1.80;;;20.00;99.90;;;;;;4966541;28;20165;-36
2022/09/11 10:10:37;;;;;;;4.60;1.88;;;19.80;99.90;;;;;;4964773;28;20038;-36
2022/09/11 10:13:21;;;;;;;2.80;1.50;;;19.70;99.90;;;;;;4967113;28;20104;-37
2022/09/11 10:15:48;;;;;;;3.92;1.50;;;19.80;99.90;;;;;;4957762;28;20050;-37
2022/09/11 10:18:32;;;;;;;3.10;1.60;;;20.00;99.90;;;;;;4964114;28;20034;-37
2022/09/11 10:21:28;;;;;;;3.92;1.85;;;20.30;99.90;;;;;;4966957;28;20396;-36
2022/09/11 10:23:59;;;;;;;3.28;1.48;;;20.50;99.90;;;;;;4962093;28;20043;-37
2022/09/11 10:26:37;;;;;;;3.30;1.25;;;20.80;99.90;;;;;;4968112;28;20504;-39
2022/09/11 10:29:12;;;;;;;4.78;1.42;;;21.00;99.90;;;;;;4961916;28;20492;-37
2022/09/11 10:31:46;;;;;;;3.47;1.70;;;21.10;99.90;;;;;;4966059;28;20039;-37
2022/09/11 10:34:18;;;;;;;2.70;1.30;;;21.20;99.90;;;;;;4965894;28;20039;-37
2022/09/11 10:37:11;;;;;;;2.70;1.50;;;21.40;99.90;;;;;;4961289;28;20097;-37
2022/09/11 10:39:38;;;;;;;3.15;1.52;;;21.70;99.70;;;;;;4946221;28;20696;-36
2022/09/11 10:42:15;;;;;;;2.63;1.10;;;21.70;99.40;;;;;;4966038;28;20045;-36
2022/09/11 10:44:43;;;;;;;1.63;0.90;;;21.60;98.20;;;;;;4965168;28;20039;-36
2022/09/11 10:47:31;;;;;;;5.25;0.90;;;21.50;99.10;;;;;;4964962;28;20118;-38
2022/09/11 10:50:15;;;;;;;3.65;1.27;;;21.60;99.00;;;;;;4967999;28;20049;-38
2022/09/11 10:53:11;;;;;;;1.73;0.70;;;21.70;97.60;;;;;;4968982;28;20043;-39
2022/09/11 10:55:46;;;;;;;2.13;1.02;;;21.60;97.80;;;;;;4971982;28;20047;-36
2022/09/11 10:58:19;;;;;;;2.97;1.02;;;21.40;98.40;;;;;;4972717;28;20065;-37
2022/09/11 11:00:46;;;;;;;2.80;1.02;;;21.30;98.60;;;;;;4974179;28;20070;-37
2022/09/11 11:03:16;;;;;;;2.53;0.85;;;21.30;99.40;;;;;;4969795;28;20318;-37
2022/09/11 11:05:54;;;;;;;3.20;1.02;;;21.30;99.20;;;;;;4974979;28;20047;-37
2022/09/11 11:08:29;;;;;;;3.67;1.20;;;21.50;98.40;;;;;;4972893;28;20747;-38
2022/09/11 11:11:03;;;;;;;2.42;0.65;;;21.60;98.00;;;;;;4971629;28;20046;-38
2022/09/11 11:13:48;;;;;;;2.05;0.77;;;21.70;94.50;;;;;;4971805;28;20042;-37
2022/09/11 11:16:32;;;;;;;1.88;0.85;;;21.80;95.20;;;;;;4970837;28;20503;-37
2022/09/11 11:19:42;;;;;;;3.03;1.00;;;21.90;94.70;;;;;;4971583;28;20050;-37
2022/09/11 11:22:44;;;;;;;1.10;0.60;;;22.10;93.60;;;;;;4970720;28;20456;-40
2022/09/11 11:25:48;;;;;;;2.53;0.85;;;22.20;86.60;;;;;;4975574;28;20053;-38
2022/09/11 11:28:53;;;;;;;3.95;0.85;;;22.10;88.50;;;;;;4940369;28;20094;-36
2022/09/11 11:31:40;;;;;;;2.40;0.80;;;22.10;91.20;;;;;;4969281;28;20047;-37
2022/09/11 11:34:55;;;;;;;2.28;0.63;;;22.20;90.40;;;;;;4970894;28;20047;-38
2022/09/11 11:37:32;;;;;;;2.85;0.60;;;22.20;88.70;;;;;;4975391;28;20054;-37
2022/09/11 11:40:12;;;;;;;1.42;0.70;;;22.30;90.10;;;;;;4974448;28;20035;-37
2022/09/11 11:42:49;;;;;;;1.23;0.60;;;22.40;88.20;;;;;;4973959;28;20053;-37
2022/09/11 11:45:45;;;;;;;5.43;0.80;;;22.40;89.80;;;;;;4974601;28;20042;-38
2022/09/11 11:48:40;;;;;;;1.27;0.60;;;22.60;88.60;;;;;;4943491;28;20060;-37
2022/09/11 11:51:14;;;;;;;1.38;0.60;;;22.70;85.40;;;;;;4972883;28;20488;-37
2022/09/11 11:53:58;;;;;;;2.92;0.60;;;22.80;86.40;;;;;;4971744;28;20050;-38
2022/09/11 11:56:36;;;;;;;1.90;0.90;;;22.80;85.10;;;;;;4971954;28;20145;-37
2022/09/11 11:59:13;;;;;;;1.02;0.70;;;22.80;85.10;;;;;;4976733;28;20073;-38
2022/09/11 12:01:43;;;;;;;2.92;0.70;;;22.80;83.20;;;;;;4975093;28;20042;-38
2022/09/11 12:04:48;;;;;;;2.75;0.75;;;22.90;84.40;;;;;;4971518;28;20047;-37
2022/09/11 12:07:29;;;;;;;1.50;0.70;;;23.00;79.60;;;;;;4961962;28;20043;-39
2022/09/11 12:09:57;;;;;;;1.65;0.55;;;22.90;83.20;;;;;;4971881;28;20031;-38
2022/09/11 12:12:42;;;;;;;2.38;0.60;;;22.90;83.10;;;;;;4972078;28;20519;-37
2022/09/11 12:15:20;;;;;;;2.35;0.75;;;23.10;80.90;;;;;;4967852;28;20031;-37
2022/09/11 12:17:56;;;;;;;1.70;0.70;;;23.20;81.40;;;;;;4968905;28;20460;-37
2022/09/11 12:20:40;;;;;;;2.08;0.60;;;23.40;80.50;;;;;;4968288;28;20065;-38
2022/09/11 12:23:29;;;;;;;1.02;0.50;;;23.50;78.20;;;;;;4971140;28;20043;-36
2022/09/11 12:26:21;;;;;;;1.95;0.70;;;23.60;75.70;;;;;;4975041;28;20042;-37
2022/09/11 12:28:48;;;;;;;2.55;0.80;;;23.70;77.10;;;;;;4970448;28;20083;-37
2022/09/11 12:31:16;;;;;;;1.60;0.50;;;23.90;78.20;;;;;;4957546;28;20066;-36
2022/09/11 12:33:47;;;;;;;1.77;0.40;;;23.90;77.90;;;;;;4964954;28;20046;-38
2022/09/11 12:36:45;;;;;;;1.98;0.45;;;24.10;76.00;;;;;;4968871;28;20054;-37
2022/09/11 12:39:23;;;;;;;1.70;0.63;;;24.30;73.60;;;;;;4963335;28;20427;-38
2022/09/11 12:41:49;;;;;;;1.05;0.63;;;24.50;74.30;;;;;;4968722;28;20522;-39
2022/09/11 12:44:51;;;;;;;2.50;1.20;;;24.80;75.10;;;;;;4952109;28;20043;-37
2022/09/11 12:47:28;;;;;;;2.88;0.95;;;25.10;71.40;;;;;;4963754;28;20047;-38
2022/09/11 12:50:15;;;;;;;2.88;0.98;;;25.30;72.80;;;;;;4953715;28;20126;-37
2022/09/11 12:52:44;;;;;;;2.40;1.02;;;25.60;71.50;;;;;;4969707;28;20121;-38
2022/09/11 12:55:39;;;;;;;1.30;0.70;;;25.90;69.80;;;;;;4966956;28;20046;-36
2022/09/11 12:58:34;;;;;;;2.92;1.10;;;26.40;66.40;;;;;;4972706;28;20037;-38
2022/09/11 13:01:17;;;;;;;2.75;1.10;;;27.00;64.40;;;;;;4960694;28;20053;-38
2022/09/11 13:03:55;;;;;;;2.97;0.98;;;27.50;56.30;;;;;;4971052;28;20527;-42
2022/09/11 13:06:22;;;;;;;2.97;1.00;;;27.60;54.60;;;;;;4968133;28;20587;-44
2022/09/11 13:08:58;;;;;;;3.20;1.10;;;27.50;57.00;;;;;;4966536;28;20053;-38
2022/09/11 13:11:48;;;;;;;1.25;0.82;;;27.60;56.50;;;;;;4963764;28;20110;-36
2022/09/11 13:14:28;;;;;;;1.67;0.70;;;27.90;51.50;;;;;;4963696;28;20080;-36